Time;durP1;ratioP1;P1;durP2;ratioP2;P2;SDS_P1;SDS_P2;PMS_P1;PMS_P2;Temp;Humidity;BMP_temperature;BMP_pressure;BME280_temperature;BME280_humidity;BME280_pressure;Samples;Min_cycle;Max_cycle;Signal;HPM_P1;HPM_P2
2022/06/27 00:00:12;;;;;;;5.35;3.63;;;;;;;18.07;100.00;101601.84;5012148;28;20049;-79
2022/06/27 00:02:41;;;;;;;5.15;4.15;;;;;;;18.04;100.00;101599.22;5025824;28;20063;-78
2022/06/27 00:05:11;;;;;;;4.88;3.15;;;;;;;18.03;100.00;101602.75;5042706;28;20049;-79
2022/06/27 00:07:40;;;;;;;5.78;3.75;;;;;;;18.03;100.00;101604.56;4997913;28;23897;-78
2022/06/27 00:10:09;;;;;;;5.32;4.55;;;;;;;18.01;100.00;101607.25;5039957;28;20398;-79
2022/06/27 00:12:40;;;;;;;6.10;3.95;;;;;;;17.99;100.00;101610.84;5041451;28;20718;-78
2022/06/27 00:15:10;;;;;;;8.25;4.70;;;;;;;17.99;100.00;101603.72;5032378;28;20037;-78
2022/06/27 00:17:39;;;;;;;7.90;4.43;;;;;;;17.99;100.00;101605.53;5020464;28;20654;-78
2022/06/27 00:20:09;;;;;;;6.28;5.18;;;;;;;17.99;100.00;101600.19;5042780;28;20517;-78
2022/06/27 00:22:38;;;;;;;7.75;4.80;;;;;;;17.99;100.00;101597.53;5029390;28;20155;-78
2022/06/27 00:25:09;;;;;;;7.68;4.85;;;;;;;17.98;100.00;101593.09;5028322;28;20061;-78
2022/06/27 00:27:37;;;;;;;5.50;5.00;;;;;;;17.98;100.00;101598.44;5036742;28;20162;-78
2022/06/27 00:30:07;;;;;;;7.40;4.90;;;;;;;17.97;100.00;101597.53;5042417;28;20063;-78
2022/06/27 00:32:35;;;;;;;6.10;4.88;;;;;;;17.98;100.00;101587.78;5008095;28;20348;-78
2022/06/27 00:35:06;;;;;;;5.03;4.57;;;;;;;17.96;100.00;101589.56;5044891;28;20052;-78
2022/06/27 00:37:35;;;;;;;7.03;4.82;;;;;;;17.93;100.00;101585.16;5004428;28;20045;-78
2022/06/27 00:40:06;;;;;;;8.50;5.18;;;;;;;17.92;100.00;101583.41;5030355;28;20040;-78
2022/06/27 00:42:35;;;;;;;7.25;5.20;;;;;;;17.89;100.00;101587.00;5029068;28;20045;-78
2022/06/27 00:45:06;;;;;;;6.35;4.57;;;;;;;17.88;100.00;101590.59;5043802;28;20065;-78
2022/06/27 00:47:34;;;;;;;5.72;5.10;;;;;;;17.87;100.00;101590.59;4964207;28;20189;-78
2022/06/27 00:50:05;;;;;;;5.25;4.80;;;;;;;17.86;100.00;101594.16;5024526;28;20045;-78
2022/06/27 00:52:34;;;;;;;5.25;4.63;;;;;;;17.84;100.00;101580.84;5040189;28;20333;-78
2022/06/27 00:55:05;;;;;;;6.70;5.15;;;;;;;17.83;100.00;101571.06;5027777;28;20394;-78
2022/06/27 00:57:35;;;;;;;6.50;5.45;;;;;;;17.79;100.00;101573.78;5031378;28;20037;-78
2022/06/27 01:00:05;;;;;;;7.93;5.55;;;;;;;17.75;100.00;101570.31;5045676;28;20045;-78
2022/06/27 01:02:34;;;;;;;9.27;5.28;;;;;;;17.71;100.00;101576.56;5010831;28;20149;-78
2022/06/27 01:05:05;;;;;;;7.68;6.15;;;;;;;17.69;100.00;101589.94;5032337;28;20049;-78
2022/06/27 01:07:34;;;;;;;6.70;6.10;;;;;;;17.66;100.00;101584.66;5010663;28;20189;-78
2022/06/27 01:10:03;;;;;;;7.25;6.53;;;;;;;17.65;100.00;101579.34;5032685;28;20041;-78
2022/06/27 01:12:33;;;;;;;7.78;5.93;;;;;;;17.61;100.00;101583.81;5022567;28;20041;-78
2022/06/27 01:15:04;;;;;;;6.82;6.18;;;;;;;17.62;100.00;101582.94;5046400;28;20406;-78
2022/06/27 01:17:34;;;;;;;8.80;6.70;;;;;;;17.62;100.00;101590.06;5027809;28;20250;-78
2022/06/27 01:20:03;;;;;;;7.88;7.18;;;;;;;17.63;100.00;101603.34;5011703;28;20033;-78
2022/06/27 01:22:33;;;;;;;10.10;7.22;;;;;;;17.62;100.00;101609.59;5024019;28;20048;-77
2022/06/27 01:25:02;;;;;;;7.32;6.63;;;;;;;17.62;100.00;101609.59;5020000;28;20053;-78
2022/06/27 01:27:34;;;;;;;9.68;7.57;;;;;;;17.62;100.00;101595.38;5008066;28;20277;-78
2022/06/27 01:30:03;;;;;;;7.88;7.00;;;;;;;17.61;100.00;101588.28;5027343;28;20037;-78
2022/06/27 01:32:36;;;;;;;7.68;6.93;;;;;;;17.60;100.00;101583.84;5024818;28;20317;-78
2022/06/27 01:35:07;;;;;;;8.50;7.22;;;;;;;17.62;100.00;101584.72;4981399;28;20409;-78
2022/06/27 01:37:35;;;;;;;8.15;7.45;;;;;;;17.61;100.00;101572.28;5027152;28;20041;-78
2022/06/27 01:40:04;;;;;;;8.45;7.43;;;;;;;17.60;100.00;101560.75;5037691;28;20033;-78
2022/06/27 01:42:34;;;;;;;8.35;7.50;;;;;;;17.60;100.00;101562.50;5032287;28;20045;-78
2022/06/27 01:45:07;;;;;;;9.13;7.65;;;;;;;17.59;100.00;101596.28;5046009;28;20037;-78
2022/06/27 01:47:36;;;;;;;8.13;7.10;;;;;;;17.59;100.00;101595.41;5037179;28;20269;-78
2022/06/27 01:50:12;;;;;;;7.85;7.05;;;;;;;17.54;100.00;101584.81;5029821;28;20041;-78
2022/06/27 01:52:48;;;;;;;7.80;7.00;;;;;;;17.49;100.00;101592.00;5033167;28;20693;-78
2022/06/27 01:55:19;;;;;;;7.25;6.63;;;;;;;17.45;100.00;101620.47;5045673;28;20052;-78
2022/06/27 01:57:48;;;;;;;10.07;8.07;;;;;;;17.44;100.00;101628.47;5015334;28;20048;-78
2022/06/27 02:00:17;;;;;;;8.13;7.32;;;;;;;17.42;100.00;101624.94;5021673;28;20040;-78
2022/06/27 02:02:57;;;;;;;8.63;7.82;;;;;;;17.41;100.00;101626.75;5032616;28;20045;-78
2022/06/27 02:05:29;;;;;;;9.65;8.23;;;;;;;17.40;100.00;101621.44;5008969;28;20162;-78
2022/06/27 02:08:03;;;;;;;8.50;7.55;;;;;;;17.38;100.00;101620.56;5025253;28;20052;-78
2022/06/27 02:10:31;;;;;;;8.40;7.65;;;;;;;17.36;100.00;101617.91;5019336;28;20430;-78
2022/06/27 02:13:02;;;;;;;8.97;8.13;;;;;;;17.36;100.00;101620.59;4999464;28;20045;-78
2022/06/27 02:15:31;;;;;;;9.52;7.88;;;;;;;17.36;100.00;101617.06;5042908;28;20652;-78
2022/06/27 02:18:00;;;;;;;9.63;7.53;;;;;;;17.34;100.00;101612.59;5039131;28;20053;-78
2022/06/27 02:20:30;;;;;;;8.40;7.38;;;;;;;17.33;100.00;101616.19;5028294;28;20029;-77
2022/06/27 02:23:00;;;;;;;9.50;8.57;;;;;;;17.33;100.00;101621.50;5010471;28;20157;-78
2022/06/27 02:25:29;;;;;;;8.35;7.63;;;;;;;17.34;100.00;101607.28;5042615;28;20552;-78
2022/06/27 02:27:58;;;;;;;10.32;7.47;;;;;;;17.32;100.00;101592.22;5014645;28;20255;-78
2022/06/27 02:30:28;;;;;;;10.23;8.73;;;;;;;17.28;100.00;101606.50;5013648;28;20415;-78
2022/06/27 02:32:57;;;;;;;8.60;7.57;;;;;;;17.28;100.00;101611.81;5034125;28;20161;-78
2022/06/27 02:35:27;;;;;;;9.52;7.95;;;;;;;17.27;100.00;101616.25;5039265;28;20049;-78
2022/06/27 02:37:56;;;;;;;13.50;8.93;;;;;;;17.27;100.00;101620.69;4948776;28;20286;-78
2022/06/27 02:40:29;;;;;;;9.13;8.23;;;;;;;17.26;100.00;101618.94;5023030;28;20038;-78
2022/06/27 02:42:59;;;;;;;9.07;8.02;;;;;;;17.23;100.00;101622.50;5006120;28;20246;-78
2022/06/27 02:45:31;;;;;;;11.45;7.88;;;;;;;17.22;100.00;101620.75;5035382;28;20044;-78
2022/06/27 02:48:01;;;;;;;9.15;8.15;;;;;;;17.21;100.00;101624.31;5039250;28;20606;-77
2022/06/27 02:50:32;;;;;;;8.50;7.80;;;;;;;17.20;100.00;101629.66;5041985;28;20044;-77
2022/06/27 02:53:10;;;;;;;10.63;8.60;;;;;;;17.19;100.00;101627.91;4994558;28;20194;-78
2022/06/27 02:55:48;;;;;;;8.40;7.60;;;;;;;17.19;100.00;101622.59;5033078;28;20490;-78
2022/06/27 02:58:59;;;;;;;9.88;8.25;;;;;;;17.18;100.00;101621.66;5037061;28;20045;-78
2022/06/27 03:01:29;;;;;;;10.07;8.07;;;;;;;17.15;100.00;101611.94;5035617;28;20064;-78
2022/06/27 03:04:00;;;;;;;12.63;8.98;;;;;;;17.12;100.00;101611.97;5041316;28;20041;-78
2022/06/27 03:06:30;;;;;;;10.48;9.38;;;;;;;17.10;100.00;101608.44;5034329;28;20117;-78
2022/06/27 03:09:03;;;;;;;10.30;8.88;;;;;;;17.07;100.00;101616.50;4993769;28;20119;-78
2022/06/27 03:11:32;;;;;;;10.10;9.05;;;;;;;17.05;100.00;101612.06;5026069;28;20048;-78
2022/06/27 03:14:01;;;;;;;12.27;9.32;;;;;;;17.02;100.00;101612.13;5024051;28;20158;-77
2022/06/27 03:16:29;;;;;;;9.85;8.43;;;;;;;16.99;100.00;101614.81;5041621;28;20041;-77
2022/06/27 03:18:58;;;;;;;8.38;7.35;;;;;;;16.94;100.00;101613.09;5022933;28;20239;-78
2022/06/27 03:21:44;;;;;;;10.27;7.18;;;;;;;16.91;100.00;101606.91;5013940;28;20052;-78
2022/06/27 03:24:12;;;;;;;9.90;7.10;;;;;;;16.86;100.00;101598.09;5026825;28;20254;-78
2022/06/27 03:26:43;;;;;;;9.02;7.40;;;;;;;16.84;100.00;101595.47;4993927;28;20053;-78
2022/06/27 03:29:11;;;;;;;8.75;7.45;;;;;;;16.83;100.00;101583.03;5003105;28;20045;-78
2022/06/27 03:31:41;;;;;;;9.60;7.65;;;;;;;16.82;100.00;101570.63;5029270;28;20037;-78
2022/06/27 03:34:14;;;;;;;8.02;7.03;;;;;;;16.79;100.00;101575.97;5045384;28;20076;-78
2022/06/27 03:36:49;;;;;;;9.50;8.10;;;;;;;16.77;100.00;101573.31;5027948;28;20378;-78
2022/06/27 03:39:21;;;;;;;8.82;7.18;;;;;;;16.76;100.00;101581.31;4982559;28;20049;-78
2022/06/27 03:41:51;;;;;;;10.07;9.07;;;;;;;16.75;100.00;101574.22;5018157;28;20048;-78
2022/06/27 03:44:20;;;;;;;8.88;8.02;;;;;;;16.75;100.00;101559.13;5044696;28;20410;-78
2022/06/27 03:46:52;;;;;;;9.77;8.77;;;;;;;16.75;100.00;101553.81;5030844;28;20367;-78
2022/06/27 03:52:14;;;;;;;11.60;9.32;;;;;;;16.76;100.00;101552.91;5007859;28;20419;-78
2022/06/27 03:54:42;;;;;;;9.68;8.40;;;;;;;16.76;100.00;101558.22;5009422;28;20385;-79
2022/06/27 03:57:11;;;;;;;9.02;7.25;;;;;;;16.76;100.00;101558.22;5049353;28;20364;-78
2022/06/27 03:59:39;;;;;;;7.30;6.43;;;;;;;16.76;100.00;101560.88;5029659;28;20037;-78
2022/06/27 04:02:09;;;;;;;7.90;6.53;;;;;;;16.76;100.00;101565.34;5022557;28;20286;-78
2022/06/27 04:04:54;;;;;;;7.00;5.90;;;;;;;16.74;100.00;101573.31;5009517;28;20056;-78
2022/06/27 04:07:22;;;;;;;7.70;5.45;;;;;;;16.72;100.00;101580.44;5017526;28;20052;-78
2022/06/27 04:09:51;;;;;;;11.27;7.10;;;;;;;16.71;100.00;101570.72;4995659;28;20082;-78
2022/06/27 04:12:19;;;;;;;8.95;8.05;;;;;;;16.72;100.00;101567.16;5040526;28;20048;-78
2022/06/27 04:15:10;;;;;;;7.78;6.95;;;;;;;16.71;100.00;101573.38;5010948;28;20694;-78
2022/06/27 04:17:57;;;;;;;9.32;8.48;;;;;;;16.70;100.00;101576.94;5030919;28;20041;-78
2022/06/27 04:20:43;;;;;;;9.50;8.25;;;;;;;16.66;100.00;101571.66;5036392;28;20406;-78
2022/06/27 04:23:13;;;;;;;8.10;7.30;;;;;;;16.64;100.00;101566.34;5019265;28;20619;-78
2022/06/27 04:26:00;;;;;;;8.93;8.02;;;;;;;16.64;100.00;101566.34;4995655;28;20049;-78
2022/06/27 04:28:29;;;;;;;8.27;7.43;;;;;;;16.66;100.00;101553.91;5015668;28;20539;-78
2022/06/27 04:30:57;;;;;;;8.95;7.82;;;;;;;16.64;100.00;101549.50;5003247;28;20266;-79
2022/06/27 04:33:26;;;;;;;7.47;6.55;;;;;;;16.62;100.00;101544.22;5030297;28;20490;-78
2022/06/27 04:35:55;;;;;;;6.18;5.57;;;;;;;16.60;100.00;101537.13;5024155;28;20154;-78
2022/06/27 04:38:23;;;;;;;7.60;5.53;;;;;;;16.57;100.00;101536.25;5030265;28;20041;-78
2022/06/27 04:41:10;;;;;;;6.72;6.00;;;;;;;16.56;100.00;101542.50;4986404;28;20159;-78
2022/06/27 04:43:42;;;;;;;6.35;5.07;;;;;;;16.56;100.00;101533.63;5008251;28;20056;-78
2022/06/27 04:46:11;;;;;;;5.80;4.40;;;;;;;16.54;100.00;101536.31;5023499;28;20072;-78
2022/06/27 04:48:59;;;;;;;5.50;4.80;;;;;;;16.50;100.00;101552.31;5009165;28;20267;-78
2022/06/27 04:51:29;;;;;;;6.63;5.30;;;;;;;16.52;100.00;101562.06;5036125;28;20040;-78
2022/06/27 04:53:58;;;;;;;6.15;5.15;;;;;;;16.53;100.00;101546.97;5020422;28;20235;-78
2022/06/27 04:56:26;;;;;;;5.60;5.20;;;;;;;16.55;100.00;101547.81;4987348;28;20048;-78
2022/06/27 04:58:55;;;;;;;6.30;4.70;;;;;;;16.55;100.00;101556.69;5004438;28;20573;-78
2022/06/27 05:01:24;;;;;;;5.30;4.63;;;;;;;16.56;100.00;101557.59;5027245;28;20040;-78
2022/06/27 05:03:57;;;;;;;6.72;5.07;;;;;;;16.58;100.00;101547.81;5011444;28;20262;-78
2022/06/27 05:06:30;;;;;;;4.78;4.32;;;;;;;16.56;100.00;101544.28;5025366;28;20040;-78
2022/06/27 05:09:00;;;;;;;5.70;5.03;;;;;;;16.57;100.00;101548.69;5013346;28;20290;-78
2022/06/27 05:11:29;;;;;;;5.45;4.97;;;;;;;16.56;100.00;101538.97;5022398;28;20050;-78
2022/06/27 05:13:57;;;;;;;5.53;4.10;;;;;;;16.56;100.00;101539.84;4974042;28;20080;-78
2022/06/27 05:16:42;;;;;;;5.95;4.65;;;;;;;16.57;100.00;101543.38;5041215;28;20045;-79
2022/06/27 05:19:12;;;;;;;3.78;3.47;;;;;;;16.57;100.00;101533.59;5032190;28;20414;-78
2022/06/27 05:21:45;;;;;;;5.45;4.90;;;;;;;16.60;100.00;101532.69;5025077;28;20052;-79
2022/06/27 05:24:17;;;;;;;6.05;4.70;;;;;;;16.61;100.00;101521.16;5027960;28;20506;-78
2022/06/27 05:26:50;;;;;;;4.15;3.75;;;;;;;16.64;100.00;101525.56;4988419;28;20045;-78
2022/06/27 05:29:19;;;;;;;5.90;3.75;;;;;;;16.68;100.00;101522.84;5056212;28;20045;-78
2022/06/27 05:31:49;;;;;;;6.80;4.25;;;;;;;16.72;100.00;101516.56;5041067;28;20056;-79
2022/06/27 05:34:19;;;;;;;4.68;4.38;;;;;;;16.77;100.00;101505.91;5015830;28;20045;-78
2022/06/27 05:36:48;;;;;;;4.90;4.18;;;;;;;17.02;100.00;101508.28;5035338;28;20056;-78
2022/06/27 05:39:16;;;;;;;8.23;5.00;;;;;;;17.24;100.00;101496.44;5027713;28;20033;-78
2022/06/27 05:41:45;;;;;;;4.63;4.07;;;;;;;17.33;100.00;101506.06;5027722;28;20045;-78
2022/06/27 05:44:20;;;;;;;4.75;4.43;;;;;;;17.41;100.00;101519.28;5045184;28;20052;-78
2022/06/27 05:46:49;;;;;;;6.30;5.03;;;;;;;17.41;100.00;101512.19;4991043;28;20056;-79
2022/06/27 05:49:26;;;;;;;6.75;4.40;;;;;;;17.45;100.00;101497.91;5038713;28;20033;-78
2022/06/27 05:51:57;;;;;;;6.07;5.38;;;;;;;17.51;100.00;101503.13;4968754;28;20045;-78
2022/06/27 05:54:27;;;;;;;5.45;4.88;;;;;;;17.56;100.00;101510.19;5047034;28;20044;-78
2022/06/27 05:56:56;;;;;;;6.90;5.60;;;;;;;17.57;100.00;101506.63;4987529;28;20617;-78
2022/06/27 05:59:25;;;;;;;8.80;6.00;;;;;;;17.54;100.00;101492.44;5017222;28;20283;-78
2022/06/27 06:02:00;;;;;;;6.90;5.60;;;;;;;17.56;100.00;101475.53;5024633;28;20422;-78
2022/06/27 06:04:31;;;;;;;6.95;6.25;;;;;;;17.59;100.00;101462.19;5033422;28;20041;-78
2022/06/27 06:07:01;;;;;;;6.53;5.53;;;;;;;17.61;100.00;101460.34;5041009;28;20242;-78
2022/06/27 06:09:32;;;;;;;6.53;5.93;;;;;;;17.60;100.00;101461.25;5004627;28;20050;-78
2022/06/27 06:12:01;;;;;;;5.50;5.00;;;;;;;17.60;100.00;101442.59;5020560;28;20608;-78
2022/06/27 06:14:34;;;;;;;7.38;5.47;;;;;;;17.66;100.00;101453.19;4996296;28;20048;-78
2022/06/27 06:17:03;;;;;;;6.45;5.78;;;;;;;17.69;100.00;101459.34;5012334;28;20045;-78
2022/06/27 06:19:32;;;;;;;5.55;5.15;;;;;;;17.71;100.00;101472.63;5030621;28;20060;-78
2022/06/27 06:22:05;;;;;;;5.78;4.85;;;;;;;17.69;100.00;101469.09;5018418;28;20048;-78
2022/06/27 06:24:33;;;;;;;8.13;5.32;;;;;;;17.65;100.00;101460.28;5046614;28;20052;-78
2022/06/27 06:27:09;;;;;;;7.75;5.65;;;;;;;17.64;100.00;101447.88;5018626;28;20038;-77
2022/06/27 06:29:37;;;;;;;6.03;5.55;;;;;;;17.67;100.00;101438.94;5010865;28;20048;-77
2022/06/27 06:32:07;;;;;;;9.90;5.97;;;;;;;17.66;100.00;101453.19;4999140;28;20249;-77
2022/06/27 06:34:37;;;;;;;8.10;5.70;;;;;;;17.61;100.00;101458.56;5042645;28;20529;-78
2022/06/27 06:37:06;;;;;;;6.57;5.97;;;;;;;17.62;100.00;101483.47;4998112;28;20052;-77
2022/06/27 06:39:41;;;;;;;8.02;6.80;;;;;;;17.59;100.00;101499.47;5042281;28;20053;-77
2022/06/27 06:42:10;;;;;;;7.25;6.05;;;;;;;17.57;100.00;101511.94;5042791;28;20162;-77
2022/06/27 06:44:48;;;;;;;7.97;7.15;;;;;;;17.52;100.00;101514.66;4995609;28;20034;-78
2022/06/27 06:47:45;;;;;;;;;;;;;;;17.41;100.00;101528.16;5028756;28;20107;-78
2022/06/27 06:50:18;;;;;;;8.60;7.18;;;;;;;17.37;100.00;101523.75;5011869;28;19924;-77
2022/06/27 06:52:51;;;;;;;7.47;6.85;;;;;;;17.35;100.00;101525.56;5022515;28;20056;-78
2022/06/27 06:55:26;;;;;;;7.78;7.07;;;;;;;17.36;100.00;101532.66;5027931;28;20517;-77
2022/06/27 06:57:54;;;;;;;8.43;7.57;;;;;;;17.32;100.00;101536.28;5035820;28;20076;-77
2022/06/27 07:00:23;;;;;;;7.32;6.68;;;;;;;17.32;100.00;101539.81;4995030;28;20044;-77
2022/06/27 07:02:52;;;;;;;10.55;7.18;;;;;;;17.33;100.00;101536.28;5044215;28;20418;-77
2022/06/27 07:05:21;;;;;;;8.50;7.35;;;;;;;17.33;100.00;101536.28;5019216;28;20076;-77
2022/06/27 07:07:52;;;;;;;7.25;6.60;;;;;;;17.36;100.00;101534.47;5017679;28;20060;-77
2022/06/27 07:10:21;;;;;;;8.15;6.45;;;;;;;17.34;100.00;101527.34;5039658;28;20541;-77
2022/06/27 07:12:50;;;;;;;9.07;7.57;;;;;;;17.36;100.00;101524.69;5031766;28;20056;-78
2022/06/27 07:15:18;;;;;;;9.30;6.47;;;;;;;17.35;100.00;101522.91;5009162;28;20056;-79
2022/06/27 07:17:49;;;;;;;7.90;6.35;;;;;;;17.35;100.00;101538.88;5038535;28;20041;-79
2022/06/27 07:20:21;;;;;;;;;;;;;;;17.39;100.00;101551.28;5017953;28;20065;-77
2022/06/27 07:22:50;;;;;;;9.98;7.07;;;;;;;17.41;100.00;101553.91;5025083;28;19925;-79
2022/06/27 07:25:19;;;;;;;7.47;6.78;;;;;;;17.44;100.00;101568.06;5042849;28;20057;-79
2022/06/27 07:27:49;;;;;;;7.40;6.55;;;;;;;17.45;100.00;101575.19;5028197;28;20060;-79
2022/06/27 07:30:19;;;;;;;7.57;6.60;;;;;;;17.47;100.00;101584.03;5008521;28;20053;-79
2022/06/27 07:32:48;;;;;;;7.80;6.43;;;;;;;17.48;100.00;101592.88;5030876;28;20037;-79
2022/06/27 07:35:17;;;;;;;7.95;6.50;;;;;;;17.48;100.00;101590.22;5043996;28;20056;-78
2022/06/27 07:37:51;;;;;;;8.23;6.80;;;;;;;17.50;100.00;101594.66;5038596;28;20040;-78
2022/06/27 07:40:22;;;;;;;9.35;7.85;;;;;;;17.52;100.00;101603.50;5031352;28;20076;-79
2022/06/27 07:42:53;;;;;;;8.25;7.45;;;;;;;17.52;100.00;101610.59;5025477;28;20038;-78
2022/06/27 07:45:23;;;;;;;;;;;;;;;17.51;100.00;101603.53;5032187;28;20048;-78
2022/06/27 07:47:54;;;;;;;8.38;7.57;;;;;;;17.49;100.00;101597.34;5009754;28;19921;-79
2022/06/27 07:50:39;;;;;;;14.02;7.80;;;;;;;17.49;100.00;101606.19;5044948;28;20049;-78
2022/06/27 07:53:13;;;;;;;10.05;7.30;;;;;;;17.44;100.00;101610.69;5043552;28;20611;-78
2022/06/27 07:55:51;;;;;;;6.85;6.25;;;;;;;17.44;100.00;101620.47;5031856;28;20589;-79
2022/06/27 07:58:26;;;;;;;7.10;6.40;;;;;;;17.42;100.00;101614.28;5046621;28;20044;-78
2022/06/27 08:00:54;;;;;;;7.93;7.20;;;;;;;17.43;100.00;101613.38;5001535;28;20053;-79
2022/06/27 08:06:29;;;;;;;8.40;6.05;;;;;;;17.45;100.00;101617.81;5032533;28;20042;-78
2022/06/27 08:09:00;;;;;;;7.13;6.53;;;;;;;17.49;100.00;101608.88;5040342;28;20247;-79
2022/06/27 08:11:38;;;;;;;6.93;6.32;;;;;;;17.53;100.00;101605.25;5031679;28;20053;-78
2022/06/27 08:14:09;;;;;;;6.75;6.15;;;;;;;17.58;100.00;101598.97;5030875;28;20337;-78
2022/06/27 08:16:41;;;;;;;6.88;6.32;;;;;;;17.59;100.00;101587.41;5024864;28;20032;-78
2022/06/27 08:19:11;;;;;;;6.53;5.88;;;;;;;17.59;100.00;101580.31;5042409;28;20048;-78
2022/06/27 08:21:41;;;;;;;7.07;5.70;;;;;;;17.59;100.00;101579.44;5036729;28;20041;-78
2022/06/27 08:24:15;;;;;;;6.35;5.78;;;;;;;17.57;100.00;101579.44;5041099;28;20044;-78
2022/06/27 08:26:46;;;;;;;6.65;6.05;;;;;;;17.59;100.00;101577.63;5011015;28;20049;-78
2022/06/27 08:29:15;;;;;;;6.15;5.65;;;;;;;17.65;100.00;101571.34;5037803;28;20056;-78
2022/06/27 08:31:45;;;;;;;4.85;4.55;;;;;;;17.64;100.00;101566.94;5011875;28;20394;-79
2022/06/27 08:34:14;;;;;;;5.70;5.30;;;;;;;17.64;100.00;101572.25;5008820;28;20049;-78
2022/06/27 08:36:43;;;;;;;6.30;5.88;;;;;;;17.67;100.00;101585.53;5039577;28;20041;-79
2022/06/27 08:39:16;;;;;;;6.80;6.15;;;;;;;17.70;100.00;101586.34;5034636;28;20278;-79
2022/06/27 08:41:46;;;;;;;7.03;6.32;;;;;;;17.68;100.00;101576.63;5032652;28;20059;-79
2022/06/27 08:44:16;;;;;;;8.10;7.40;;;;;;;17.66;100.00;101567.78;5042937;28;20041;-79
2022/06/27 08:46:46;;;;;;;8.50;7.72;;;;;;;17.65;100.00;101558.88;5041422;28;20045;-79
2022/06/27 08:49:16;;;;;;;7.50;6.90;;;;;;;17.66;100.00;101538.47;5004282;28;20052;-78
2022/06/27 08:51:45;;;;;;;7.13;6.47;;;;;;;17.70;100.00;101529.50;5045538;28;20390;-79
2022/06/27 08:54:13;;;;;;;6.70;6.20;;;;;;;17.78;100.00;101535.59;5043227;28;20564;-78
2022/06/27 08:56:43;;;;;;;8.38;7.57;;;;;;;17.85;100.00;101541.75;5034271;28;20040;-78
2022/06/27 08:59:11;;;;;;;7.10;6.60;;;;;;;17.86;100.00;101528.41;5023754;28;20049;-78
2022/06/27 09:01:47;;;;;;;6.93;6.22;;;;;;;17.88;100.00;101523.03;5035442;28;20060;-79
2022/06/27 09:04:15;;;;;;;7.88;6.75;;;;;;;17.92;100.00;101520.31;4987621;28;20060;-78
2022/06/27 09:06:44;;;;;;;9.90;7.00;;;;;;;17.97;100.00;101532.66;5041922;28;20049;-79
2022/06/27 09:09:15;;;;;;;6.75;6.15;;;;;;;17.92;100.00;101543.44;5042748;28;20037;-78
2022/06/27 09:11:46;;;;;;;6.47;5.97;;;;;;;17.90;100.00;101564.78;5027984;28;20419;-79
2022/06/27 09:14:34;;;;;;;6.10;5.50;;;;;;;17.91;100.00;101582.50;5041933;28;20041;-79
2022/06/27 09:17:07;;;;;;;6.57;5.97;;;;;;;17.91;100.00;101584.31;5027792;28;20049;-79
2022/06/27 09:19:51;;;;;;;5.60;4.63;;;;;;;17.90;100.00;101588.78;5012821;28;20385;-79
2022/06/27 09:22:23;;;;;;;6.10;5.60;;;;;;;17.91;100.00;101585.19;5046279;28;20038;-77
2022/06/27 09:25:04;;;;;;;5.40;5.00;;;;;;;17.91;100.00;101577.19;5018691;28;20049;-77
2022/06/27 09:27:44;;;;;;;7.10;6.60;;;;;;;17.92;100.00;101568.28;5035991;28;20064;-77
2022/06/27 09:30:22;;;;;;;26.13;7.10;;;;;;;17.93;100.00;101583.38;5036403;28;20518;-77
2022/06/27 09:32:59;;;;;;;7.93;6.28;;;;;;;17.96;100.00;101590.47;5032527;28;20056;-77
2022/06/27 09:35:31;;;;;;;9.82;6.40;;;;;;;17.98;100.00;101599.31;5002873;28;20047;-77
2022/06/27 09:38:09;;;;;;;5.70;5.30;;;;;;;17.96;100.00;101605.56;5039331;28;20053;-77
2022/06/27 09:40:40;;;;;;;6.07;5.53;;;;;;;17.96;100.00;101618.88;5022231;28;20045;-77
2022/06/27 09:43:09;;;;;;;6.20;5.60;;;;;;;17.96;100.00;101640.22;5023886;28;20049;-77
2022/06/27 09:45:38;;;;;;;5.78;5.38;;;;;;;17.93;100.00;101644.69;5037667;28;20032;-77
2022/06/27 09:48:16;;;;;;;6.43;5.78;;;;;;;17.95;100.00;101659.81;5002034;28;20052;-77
2022/06/27 09:50:47;;;;;;;6.13;5.63;;;;;;;17.93;100.00;101667.81;4982383;28;20065;-79
2022/06/27 09:53:16;;;;;;;6.55;5.95;;;;;;;17.93;100.00;101674.03;5009477;28;20060;-77
2022/06/27 09:55:46;;;;;;;6.32;5.72;;;;;;;17.91;100.00;101673.16;5029008;28;20071;-79
2022/06/27 09:58:16;;;;;;;8.93;7.10;;;;;;;17.90;100.00;101679.44;5014357;28;20418;-79
2022/06/27 10:00:47;;;;;;;11.45;7.15;;;;;;;17.88;100.00;101683.91;5025065;28;20401;-79
2022/06/27 10:03:16;;;;;;;;;;;;;;;17.85;100.00;101672.41;5035107;28;20395;-76
2022/06/27 10:05:45;;;;;;;8.43;7.15;;;;;;;17.83;100.00;101669.72;4995369;28;19920;-79
2022/06/27 10:08:15;;;;;;;8.88;7.55;;;;;;;17.82;100.00;101667.94;5044606;28;20036;-76
2022/06/27 10:11:02;;;;;;;7.97;7.28;;;;;;;17.81;100.00;101659.97;5025498;28;20056;-79
2022/06/27 10:13:30;;;;;;;8.45;7.32;;;;;;;17.84;100.00;101657.25;5020354;28;20037;-78
2022/06/27 10:16:06;;;;;;;8.65;7.45;;;;;;;17.87;100.00;101662.59;5020551;28;20045;-80
2022/06/27 10:19:05;;;;;;;7.97;7.18;;;;;;;17.85;100.00;101665.25;5046267;28;20049;-79
2022/06/27 10:21:41;;;;;;;9.40;8.25;;;;;;;17.85;100.00;101680.38;5009748;28;20041;-78
2022/06/27 10:24:18;;;;;;;9.48;8.68;;;;;;;17.88;100.00;101694.56;5043479;28;20273;-79
2022/06/27 10:26:49;;;;;;;8.38;7.68;;;;;;;17.86;100.00;101680.38;5044757;28;20037;-79
2022/06/27 10:29:27;;;;;;;8.48;7.68;;;;;;;17.85;100.00;101669.72;5029926;28;20045;-80
2022/06/27 10:31:57;;;;;;;10.27;7.93;;;;;;;17.82;100.00;101673.25;5025453;28;20722;-79
2022/06/27 10:34:38;;;;;;;9.50;8.15;;;;;;;17.83;100.00;101661.72;5025753;28;20049;-79
2022/06/27 10:37:32;;;;;;;;;;;;;;;17.86;100.00;101663.47;5025347;28;20426;-79
2022/06/27 10:40:19;;;;;;;8.38;6.95;;;;;;;17.85;100.00;101664.41;5041651;28;20428;-79
2022/06/27 10:42:55;;;;;;;11.95;7.60;;;;;;;17.86;100.00;101677.72;5039409;28;20118;-79
2022/06/27 10:45:27;;;;;;;9.52;7.60;;;;;;;17.87;100.00;101666.13;5025948;28;20049;-79
2022/06/27 10:47:57;;;;;;;10.05;8.82;;;;;;;17.85;100.00;101654.59;5007021;28;20450;-80
2022/06/27 10:50:28;;;;;;;11.10;8.48;;;;;;;17.86;100.00;101658.13;5033730;28;20041;-79
2022/06/27 10:53:19;;;;;;;10.73;8.52;;;;;;;17.89;100.00;101668.78;4988979;28;20426;-80
2022/06/27 10:55:47;;;;;;;10.20;9.02;;;;;;;17.90;100.00;101658.09;5035165;28;20034;-80
2022/06/27 10:58:27;;;;;;;9.52;8.60;;;;;;;17.93;100.00;101663.34;5023616;28;20048;-80
2022/06/27 11:01:16;;;;;;;9.77;8.77;;;;;;;17.99;100.00;101659.72;5039278;28;20229;-80
2022/06/27 11:03:46;;;;;;;10.07;9.05;;;;;;;18.00;100.00;101663.28;5047903;28;20530;-80
2022/06/27 11:06:15;;;;;;;10.02;9.05;;;;;;;18.01;100.00;101659.72;5056467;28;20052;-80
2022/06/27 11:08:47;;;;;;;9.40;8.60;;;;;;;18.01;100.00;101665.91;5014320;28;20033;-81
2022/06/27 11:11:25;;;;;;;10.52;9.50;;;;;;;18.04;100.00;101662.34;5052247;28;20059;-80
2022/06/27 11:13:56;;;;;;;9.75;8.85;;;;;;;18.06;100.00;101664.06;5029563;28;20048;-80
2022/06/27 11:16:33;;;;;;;9.93;9.02;;;;;;;18.11;100.00;101674.69;5051313;28;20045;-80
2022/06/27 11:19:04;;;;;;;10.90;9.75;;;;;;;18.10;100.00;101671.13;5024054;28;20423;-80
2022/06/27 11:21:34;;;;;;;;;;;;;;;18.09;100.00;101681.81;5029217;28;20410;-78
2022/06/27 11:24:11;;;;;;;10.55;9.60;;;;;;;18.06;100.00;101676.53;5022871;28;19947;-79
2022/06/27 11:26:51;;;;;;;10.73;9.45;;;;;;;18.01;100.00;101668.56;5049977;28;20041;-79
2022/06/27 11:32:11;;;;;;;10.80;9.70;;;;;;;18.02;100.00;101669.50;5043795;28;20239;-79
2022/06/27 11:34:47;;;;;;;;;;;;;;;18.01;100.00;101659.72;5038633;28;20079;-79
2022/06/27 11:37:18;;;;;;;11.48;9.77;;;;;;;17.99;100.00;101662.38;5060575;28;20569;-79
2022/06/27 11:40:01;;;;;;;12.35;9.73;;;;;;;18.00;100.00;101665.97;5021157;28;20045;-80
2022/06/27 11:42:34;;;;;;;10.68;9.57;;;;;;;18.01;100.00;101663.25;5034617;28;20044;-80
2022/06/27 11:45:08;;;;;;;11.02;9.93;;;;;;;18.02;100.00;101669.50;5027620;28;20064;-80
2022/06/27 11:47:41;;;;;;;12.35;10.80;;;;;;;18.07;100.00;101672.94;5032055;28;20038;-81